Forest Hills, Pennsylvania
Current Conditions -  °F | °C
As of 11:37 PM on Wednesday 26 Nov 2014 (Local Time) from KAGC Reporting Station
Haze Haze  
Wind Chill: 32°   Ceiling: 3800
Heat Index: 32°   Visibility: 2.5mi
Dew Point: 29°   Wind: 3mph
Humidity: 88%   Direction: 300°WNW
Pressure: 29.99"   Gusts: NA
Location:  40.4338°N, 79.8642°W
Report Text: KAGC 270437Z 30003KT 2 1/2SM BR SCT007 OVC038 00/M02 A2999 RMK AO2 T00001017
Loading
Personal Weather Stations






























Interactive Weather Map New forecast layout! Learn more

10-Day Weather Forecast

Advertisements
Track Severe Weather on mobile